Time,TemperatureF,DewpointF,PressureIn,WindDirection,WindDirectionDegrees,WindSpeedMPH,WindSpeedGustMPH,Humidity,HourlyPrecipIn,Conditions,Clouds,dailyrainin,SoftwareType,DateUTC
2013-07-20 00:13:00,83.6,77.0,29.86,SW,236,1.0,6.0,81,0.00,,,0.00,weatherlink.com 1.10,2013-07-20 04:13:00,
2013-07-20 00:28:00,83.6,77.0,29.85,WSW,242,2.0,7.0,81,0.00,,,0.00,weatherlink.com 1.10,2013-07-20 04:28:00,
2013-07-20 00:43:00,83.2,77.0,29.85,South,181,1.0,5.0,82,0.00,,,0.00,weatherlink.com 1.10,2013-07-20 04:43:00,
2013-07-20 00:58:00,82.9,77.0,29.85,SSW,204,2.0,4.0,82,0.00,,,0.00,weatherlink.com 1.10,2013-07-20 04:58:00,
2013-07-20 01:13:00,82.7,77.0,29.85,WSW,243,5.0,5.0,83,0.00,,,0.00,weatherlink.com 1.10,2013-07-20 05:13:00,
2013-07-20 01:28:00,82.5,77.0,29.86,WSW,250,0.0,4.0,83,0.00,,,0.00,weatherlink.com 1.10,2013-07-20 05:28:00,
2013-07-20 01:43:00,82.1,77.0,29.86,WSW,243,0.0,4.0,84,0.00,,,0.00,weatherlink.com 1.10,2013-07-20 05:43:00,
2013-07-20 01:58:00,82.0,77.0,29.86,WSW,253,1.0,5.0,84,0.00,,,0.00,weatherlink.com 1.10,2013-07-20 05:58:00,
2013-07-20 02:13:00,82.0,77.0,29.86,WSW,255,2.0,5.0,84,0.00,,,0.00,weatherlink.com 1.10,2013-07-20 06:13:00,
2013-07-20 02:28:00,81.7,77.0,29.86,WSW,242,1.0,3.0,85,0.00,,,0.00,weatherlink.com 1.10,2013-07-20 06:28:00,
2013-07-20 02:43:00,81.6,77.0,29.85,WSW,257,0.0,3.0,85,0.00,,,0.00,weatherlink.com 1.10,2013-07-20 06:43:00,
2013-07-20 02:58:00,81.2,77.0,29.85,SW,226,5.0,7.0,86,0.00,,,0.00,weatherlink.com 1.10,2013-07-20 06:58:00,
2013-07-20 03:13:00,80.9,76.0,29.85,SW,221,0.0,2.0,86,0.00,,,0.00,weatherlink.com 1.10,2013-07-20 07:13:00,
2013-07-20 03:28:00,80.7,77.0,29.85,WSW,239,0.0,4.0,87,0.00,,,0.00,weatherlink.com 1.10,2013-07-20 07:28:00,
2013-07-20 03:44:00,80.7,76.0,29.84,SW,229,3.0,4.0,86,0.00,,,0.00,weatherlink.com 1.10,2013-07-20 07:44:00,
2013-07-20 03:59:00,80.6,76.0,29.84,SW,224,2.0,5.0,86,0.00,,,0.00,weatherlink.com 1.10,2013-07-20 07:59:00,
2013-07-20 04:14:00,80.4,76.0,29.84,SW,222,2.0,4.0,86,0.00,,,0.00,weatherlink.com 1.10,2013-07-20 08:14:00,
2013-07-20 04:29:00,80.2,76.0,29.83,WSW,252,2.0,4.0,87,0.00,,,0.00,weatherlink.com 1.10,2013-07-20 08:29:00,
2013-07-20 04:44:00,80.0,76.0,29.83,WSW,252,1.0,6.0,87,0.00,,,0.00,weatherlink.com 1.10,2013-07-20 08:44:00,
2013-07-20 04:59:00,79.7,76.0,29.83,South,172,2.0,3.0,88,0.00,,,0.00,weatherlink.com 1.10,2013-07-20 08:59:00,
2013-07-20 05:14:00,79.6,76.0,29.83,SSW,208,2.0,5.0,88,0.00,,,0.00,weatherlink.com 1.10,2013-07-20 09:14:00,
2013-07-20 05:29:00,79.3,76.0,29.84,SW,225,0.0,4.0,88,0.00,,,0.00,weatherlink.com 1.10,2013-07-20 09:29:00,
2013-07-20 05:44:00,79.4,76.0,29.84,SW,235,2.0,5.0,88,0.00,,,0.00,weatherlink.com 1.10,2013-07-20 09:44:00,
2013-07-20 05:59:00,79.3,76.0,29.85,SW,225,2.0,6.0,88,0.00,,,0.00,weatherlink.com 1.10,2013-07-20 09:59:00,
2013-07-20 06:14:00,79.3,76.0,29.85,WSW,243,0.0,3.0,88,0.00,,,0.00,weatherlink.com 1.10,2013-07-20 10:14:00,
2013-07-20 06:29:00,79.4,76.0,29.86,West,271,1.0,7.0,88,0.00,,,0.00,weatherlink.com 1.10,2013-07-20 10:29:00,
2013-07-20 06:44:00,79.6,76.0,29.86,South,181,3.0,7.0,88,0.00,,,0.00,weatherlink.com 1.10,2013-07-20 10:44:00,
2013-07-20 06:59:00,79.7,76.0,29.87,West,276,0.0,5.0,88,0.00,,,0.00,weatherlink.com 1.10,2013-07-20 10:59:00,
2013-07-20 07:14:00,79.8,76.0,29.87,WSW,252,0.0,5.0,88,0.00,,,0.00,weatherlink.com 1.10,2013-07-20 11:14:00,
2013-07-20 07:29:00,80.5,76.0,29.87,WSW,249,5.0,6.0,87,0.00,,,0.00,weatherlink.com 1.10,2013-07-20 11:29:00,
2013-07-20 07:44:00,81.2,77.0,29.87,SW,222,4.0,5.0,86,0.00,,,0.00,weatherlink.com 1.10,2013-07-20 11:44:00,
2013-07-20 07:59:00,81.2,77.0,29.86,NW,311,0.0,6.0,86,0.00,,,0.00,weatherlink.com 1.10,2013-07-20 11:59:00,
2013-07-20 08:14:00,80.7,77.0,29.86,SW,236,0.0,3.0,87,0.00,,,0.00,weatherlink.com 1.10,2013-07-20 12:14:00,
2013-07-20 08:29:00,80.3,76.0,29.86,WSW,243,0.0,8.0,87,0.00,,,0.00,weatherlink.com 1.10,2013-07-20 12:29:00,
2013-07-20 08:44:00,80.3,77.0,29.87,WNW,285,0.0,5.0,88,0.00,,,0.00,weatherlink.com 1.10,2013-07-20 12:44:00,
2013-07-20 08:59:00,80.3,77.0,29.86,SW,229,4.0,5.0,88,0.00,,,0.00,weatherlink.com 1.10,2013-07-20 12:59:00,
2013-07-20 09:14:00,80.9,77.0,29.87,West,261,1.0,5.0,87,0.00,,,0.00,weatherlink.com 1.10,2013-07-20 13:14:00,
2013-07-20 09:29:00,81.3,77.0,29.86,WSW,256,1.0,5.0,86,0.00,,,0.00,weatherlink.com 1.10,2013-07-20 13:29:00,
2013-07-20 09:44:00,81.6,77.0,29.86,WSW,252,1.0,4.0,85,0.00,,,0.00,weatherlink.com 1.10,2013-07-20 13:44:00,
2013-07-20 09:59:00,81.8,77.0,29.86,SW,235,3.0,8.0,85,0.00,,,0.00,weatherlink.com 1.10,2013-07-20 13:59:00,
2013-07-20 10:14:00,82.3,78.0,29.87,West,271,1.0,4.0,86,0.00,,,0.00,weatherlink.com 1.10,2013-07-20 14:14:00,
2013-07-20 10:29:00,82.9,78.0,29.88,SW,217,2.0,6.0,84,0.00,,,0.00,weatherlink.com 1.10,2013-07-20 14:29:00,
2013-07-20 10:44:00,83.4,78.0,29.88,WSW,249,0.0,6.0,84,0.00,,,0.00,weatherlink.com 1.10,2013-07-20 14:44:00,
2013-07-20 10:59:00,83.7,78.0,29.88,West,281,0.0,7.0,83,0.00,,,0.00,weatherlink.com 1.10,2013-07-20 14:59:00,
2013-07-20 11:14:00,85.0,78.0,29.87,WSW,239,1.0,7.0,79,0.00,,,0.00,weatherlink.com 1.10,2013-07-20 15:14:00,
2013-07-20 11:29:00,85.3,78.0,29.87,WSW,239,4.0,6.0,79,0.00,,,0.00,weatherlink.com 1.10,2013-07-20 15:29:00,
2013-07-20 11:44:00,85.9,79.0,29.87,NE,53,5.0,5.0,79,0.00,,,0.00,weatherlink.com 1.10,2013-07-20 15:44:00,
2013-07-20 11:59:00,86.9,79.0,29.86,WSW,245,1.0,5.0,78,0.00,,,0.00,weatherlink.com 1.10,2013-07-20 15:59:00,
2013-07-20 12:14:00,89.0,79.0,29.86,WSW,246,1.0,5.0,73,0.00,,,0.00,weatherlink.com 1.10,2013-07-20 16:14:00,
2013-07-20 12:29:00,90.0,79.0,29.86,SW,236,2.0,9.0,71,0.00,,,0.00,weatherlink.com 1.10,2013-07-20 16:29:00,
2013-07-20 12:44:00,90.9,80.0,29.85,SSE,162,0.0,7.0,70,0.00,,,0.00,weatherlink.com 1.10,2013-07-20 16:44:00,
2013-07-20 12:59:00,91.3,80.0,29.85,SW,235,3.0,3.0,69,0.00,,,0.00,weatherlink.com 1.10,2013-07-20 16:59:00,
2013-07-20 13:14:00,91.8,81.0,29.85,SE,143,0.0,4.0,71,0.00,,,0.00,weatherlink.com 1.10,2013-07-20 17:14:00,
2013-07-20 13:29:00,92.2,82.0,29.85,WNW,283,1.0,4.0,72,0.00,,,0.00,weatherlink.com 1.10,2013-07-20 17:29:00,
2013-07-20 13:45:00,92.3,79.0,29.84,SSE,150,0.0,7.0,66,0.00,,,0.00,weatherlink.com 1.10,2013-07-20 17:45:00,
2013-07-20 14:00:00,92.7,79.0,29.84,SSE,155,1.0,6.0,65,0.00,,,0.00,weatherlink.com 1.10,2013-07-20 18:00:00,
2013-07-20 14:15:00,92.7,80.0,29.83,WNW,284,1.0,6.0,66,0.00,,,0.00,weatherlink.com 1.10,2013-07-20 18:15:00,
2013-07-20 14:45:00,91.8,79.0,29.83,WSW,239,4.0,5.0,67,0.00,,,0.00,weatherlink.com 1.10,2013-07-20 18:45:00,
2013-07-20 15:00:00,93.1,80.0,29.82,SW,236,3.0,3.0,66,0.00,,,0.00,weatherlink.com 1.10,2013-07-20 19:00:00,
2013-07-20 15:15:00,93.2,80.0,29.82,WSW,250,0.0,2.0,66,0.00,,,0.00,weatherlink.com 1.10,2013-07-20 19:15:00,
2013-07-20 15:30:00,92.4,79.0,29.82,West,264,0.0,3.0,65,0.00,,,0.00,weatherlink.com 1.10,2013-07-20 19:30:00,
2013-07-20 15:45:00,92.2,80.0,29.80,ENE,78,1.0,5.0,67,0.00,,,0.00,weatherlink.com 1.10,2013-07-20 19:45:00,
2013-07-20 16:00:00,93.5,80.0,29.80,SW,219,1.0,7.0,65,0.00,,,0.00,weatherlink.com 1.10,2013-07-20 20:00:00,
2013-07-20 16:15:00,93.2,78.0,29.79,SSE,166,2.0,9.0,61,0.00,,,0.00,weatherlink.com 1.10,2013-07-20 20:15:00,
2013-07-20 16:30:00,93.0,77.0,29.79,South,190,1.0,4.0,60,0.00,,,0.00,weatherlink.com 1.10,2013-07-20 20:30:00,
2013-07-20 16:45:00,93.2,76.0,29.79,WSW,250,0.0,4.0,58,0.00,,,0.00,weatherlink.com 1.10,2013-07-20 20:45:00,
2013-07-20 17:00:00,93.6,79.0,29.78,SE,129,2.0,5.0,63,0.00,,,0.00,weatherlink.com 1.10,2013-07-20 21:00:00,
2013-07-20 17:15:00,93.3,79.0,29.78,WSW,253,2.0,6.0,63,0.00,,,0.00,weatherlink.com 1.10,2013-07-20 21:15:00,
2013-07-20 17:30:00,92.5,80.0,29.78,West,274,0.0,8.0,66,0.00,,,0.00,weatherlink.com 1.10,2013-07-20 21:30:00,
2013-07-20 17:45:00,92.6,80.0,29.78,SW,226,5.0,5.0,66,0.00,,,0.00,weatherlink.com 1.10,2013-07-20 21:45:00,
2013-07-20 18:00:00,91.5,79.0,29.78,SW,217,0.0,9.0,67,0.00,,,0.00,weatherlink.com 1.10,2013-07-20 22:00:00,
2013-07-20 18:15:00,90.8,79.0,29.78,NW,315,1.0,6.0,68,0.00,,,0.00,weatherlink.com 1.10,2013-07-20 22:15:00,
2013-07-20 18:30:00,89.8,78.0,29.78,SW,225,0.0,4.0,68,0.00,,,0.00,weatherlink.com 1.10,2013-07-20 22:30:00,
2013-07-20 18:45:00,88.8,78.0,29.78,SW,233,1.0,6.0,70,0.00,,,0.00,weatherlink.com 1.10,2013-07-20 22:45:00,
2013-07-20 19:00:00,88.3,77.0,29.79,SW,235,1.0,5.0,70,0.00,,,0.00,weatherlink.com 1.10,2013-07-20 23:00:00,
2013-07-20 19:30:00,87.3,78.0,29.81,West,259,0.0,2.0,73,0.00,,,0.00,weatherlink.com 1.10,2013-07-20 23:30:00,
2013-07-20 20:00:00,86.3,77.0,29.81,WSW,238,2.0,4.0,74,0.00,,,0.00,weatherlink.com 1.10,2013-07-21 00:00:00,
2013-07-20 20:15:00,86.1,77.0,29.81,SW,226,1.0,5.0,75,0.00,,,0.00,weatherlink.com 1.10,2013-07-21 00:15:00,
2013-07-20 20:30:00,85.7,77.0,29.81,WSW,255,1.0,5.0,76,0.00,,,0.00,weatherlink.com 1.10,2013-07-21 00:30:00,
2013-07-20 20:45:00,85.1,77.0,29.81,SW,231,0.0,7.0,76,0.00,,,0.00,weatherlink.com 1.10,2013-07-21 00:45:00,
2013-07-20 21:00:00,84.6,77.0,29.81,WSW,246,0.0,4.0,78,0.00,,,0.00,weatherlink.com 1.10,2013-07-21 01:00:00,
2013-07-20 21:15:00,84.1,77.0,29.82,WSW,239,2.0,3.0,79,0.00,,,0.00,weatherlink.com 1.10,2013-07-21 01:15:00,
2013-07-20 21:30:00,83.6,77.0,29.82,SW,232,1.0,4.0,80,0.00,,,0.00,weatherlink.com 1.10,2013-07-21 01:30:00,
2013-07-20 22:00:00,83.0,77.0,29.82,WSW,243,2.0,3.0,82,0.00,,,0.00,weatherlink.com 1.10,2013-07-21 02:00:00,
2013-07-20 22:15:00,82.8,77.0,29.84,West,263,1.0,6.0,82,0.00,,,0.00,weatherlink.com 1.10,2013-07-21 02:15:00,
2013-07-20 22:30:00,82.5,77.0,29.84,SW,225,1.0,5.0,83,0.00,,,0.00,weatherlink.com 1.10,2013-07-21 02:30:00,
2013-07-20 22:45:00,82.2,77.0,29.85,NW,315,1.0,4.0,83,0.00,,,0.00,weatherlink.com 1.10,2013-07-21 02:45:00,
2013-07-20 23:00:00,81.9,76.0,29.85,SSW,208,3.0,5.0,83,0.00,,,0.00,weatherlink.com 1.10,2013-07-21 03:00:00,
2013-07-20 23:15:00,81.5,76.0,29.85,WSW,257,1.0,3.0,83,0.00,,,0.00,weatherlink.com 1.10,2013-07-21 03:15:00,
2013-07-20 23:30:00,81.0,75.0,29.86,WSW,253,0.0,2.0,83,0.00,,,0.00,weatherlink.com 1.10,2013-07-21 03:30:00,
2013-07-20 23:45:00,80.6,75.0,29.86,NNE,12,0.0,1.0,83,0.00,,,0.00,weatherlink.com 1.10,2013-07-21 03:45:00,